Weather History for Oakland, MD

Change the Weather History Date:

Sunday, December 16, 2012

  Actual Average (KMGW) Record (KMGW)
Temperature  
Mean Temperature 42 °F 34 °F  
Max Temperature 50 °F 42 °F 67 °F (1984)
Min Temperature 35 °F 27 °F -1 °F (1951)
Degree Days  
Heating Degree Days 22 31  
Month to date heating degree days 454  
Since 1 July heating degree days 1502  
Cooling Degree Days 0 0  
Month to date cooling degree days 0  
Year to date cooling degree days 814  
Moisture  
Dew Point 40 °F    
Average Humidity 90    
Maximum Humidity 100    
Minimum Humidity 76    
Precipitation  
Precipitation 0.00 in 0.09 in 0.63 in (1974)
Month to date precipitation 1.59  
Year to date precipitation 40.51  
Sea Level Pressure  
Sea Level Pressure 29.85 in    
Wind  
Wind Speed 10 mph (SSE)    
Max Wind Speed 16 mph    
Max Gust Speed 16 mph    
Visibility 10 miles    
Events      
T = Trace of Precipitation, MM = Missing Value Source: NWS Daily Summary

Daily Weather History Graph

Daily Weather History Graph

Search for Another Location

Airport:

Trip Planner

Search our weather history database for the weather conditions in past years. The results will help you decide how hot, cold, wet, or windy it might be!

Date:

Astronomy

Dec. 16, 2012 Rise Set
Actual Time 7:31 AM EST 4:54 PM EST
Civil Twilight 7:01 AM EST 5:25 PM EST
Nautical Twilight 6:27 AM EST 5:58 PM EST
Astronomical Twilight 5:54 AM EST 6:31 PM EST
Moon 10:04 AM EST (12/16) 9:06 PM EST (12/16)
Length of Visible Light 10h 23m
Length of Day
9h 22m
Waxing Crescent, 16% of the Moon is Illuminated
Dec 16
Waxing Crescent
Dec 20
First Quarter
Dec 28
Full
Jan 4
Last Quarter
Jan 11
New

Hourly Weather History & Observations

Time (EST) Temp. Windchill Dew Point Humidity Pressure Visibility Wind Dir Wind Speed Gust Speed Precip Events Conditions
12:00 AM 35.6 °F 27.1 °F 32.0 °F 87% 29.96 in 10.0 mi SSE 12.7 mph - N/A   Overcast
12:20 AM 35.6 °F 27.1 °F 32.0 °F 87% 29.95 in 10.0 mi SSE 12.7 mph - N/A   Overcast
12:40 AM 35.6 °F 27.5 °F 32.0 °F 87% 29.94 in 10.0 mi SE 11.5 mph - N/A   Overcast
1:05 AM 35.6 °F 28.0 °F 32.0 °F 87% 29.93 in 10.0 mi SE 10.4 mph - N/A   Overcast
1:25 AM 35.6 °F 25.9 °F 32.0 °F 87% 29.92 in 10.0 mi SE 16.1 mph - N/A   Overcast
1:45 AM 35.6 °F 25.9 °F 32.0 °F 87% 29.92 in 10.0 mi SE 16.1 mph - N/A   Overcast
2:05 AM 35.6 °F 26.6 °F 32.0 °F 87% 29.92 in 10.0 mi SSE 13.8 mph - N/A   Overcast
2:30 AM 35.6 °F 26.2 °F 32.0 °F 87% 29.92 in 10.0 mi SSE 15.0 mph - N/A   Overcast
2:50 AM 35.6 °F 26.6 °F 32.0 °F 87% 29.92 in 10.0 mi SSE 13.8 mph - N/A   Overcast
3:10 AM 37.4 °F 30.8 °F 32.0 °F 81% 29.92 in 10.0 mi SSE 9.2 mph - N/A   Overcast
3:35 AM 37.4 °F 30.3 °F 32.0 °F 81% 29.91 in 10.0 mi South 10.4 mph - N/A   Overcast
3:55 AM 37.4 °F 30.3 °F 32.0 °F 81% 29.90 in 10.0 mi SSE 10.4 mph - N/A   Overcast
4:15 AM 37.4 °F 31.4 °F 32.0 °F 81% 29.90 in 10.0 mi SSE 8.1 mph - N/A   Overcast
4:35 AM 37.4 °F 31.4 °F 32.0 °F 81% 29.90 in 10.0 mi South 8.1 mph - N/A   Overcast
5:00 AM 39.2 °F 32.5 °F 33.8 °F 81% 29.90 in 10.0 mi South 10.4 mph - N/A   Overcast
5:20 AM 41.0 °F 34.7 °F 33.8 °F 76% 29.90 in 10.0 mi South 10.4 mph - N/A   Overcast
5:40 AM 41.0 °F 34.7 °F 33.8 °F 76% 29.89 in 10.0 mi South 10.4 mph - N/A   Overcast
6:00 AM 41.0 °F 34.7 °F 33.8 °F 76% 29.90 in 10.0 mi South 10.4 mph - N/A   Overcast
6:25 AM 41.0 °F 33.9 °F 33.8 °F 76% 29.90 in 10.0 mi South 12.7 mph - N/A   Overcast
6:45 AM 41.0 °F 34.7 °F 33.8 °F 76% 29.90 in 10.0 mi South 10.4 mph - N/A   Overcast
7:05 AM 41.0 °F 34.3 °F 35.6 °F 81% 29.90 in 10.0 mi South 11.5 mph - N/A   Overcast
7:25 AM 41.0 °F 34.7 °F 35.6 °F 81% 29.89 in 10.0 mi South 10.4 mph - N/A   Overcast
7:50 AM 42.8 °F 37.5 °F 37.4 °F 81% 29.89 in 10.0 mi South 9.2 mph - N/A   Overcast
8:10 AM 42.8 °F 37.0 °F 37.4 °F 81% 29.88 in 10.0 mi South 10.4 mph - N/A   Overcast
8:30 AM 42.8 °F 37.0 °F 37.4 °F 81% 29.89 in 10.0 mi South 10.4 mph - N/A   Overcast
8:50 AM 42.8 °F 37.5 °F 39.2 °F 87% 29.89 in 10.0 mi South 9.2 mph - N/A   Overcast
9:15 AM 44.6 °F 39.7 °F 41.0 °F 87% 29.89 in 10.0 mi South 9.2 mph - N/A   Overcast
9:35 AM 44.6 °F 40.2 °F 41.0 °F 87% 29.88 in 10.0 mi South 8.1 mph - N/A   Overcast
9:55 AM 44.6 °F 40.2 °F 42.8 °F 93% 29.88 in 10.0 mi South 8.1 mph - N/A   Overcast
10:15 AM 46.4 °F 42.4 °F 42.8 °F 87% 29.88 in 10.0 mi South 8.1 mph - N/A   Overcast
10:40 AM 46.4 °F 42.9 °F 42.8 °F 87% 29.88 in 10.0 mi South 6.9 mph - N/A   Overcast
11:00 AM 46.4 °F 42.9 °F 42.8 °F 87% 29.88 in 10.0 mi South 6.9 mph - N/A   Overcast
11:20 AM 46.4 °F 42.4 °F 42.8 °F 87% 29.87 in 10.0 mi SSE 8.1 mph - N/A   Overcast
12:25 PM 46.4 °F 42.4 °F 42.8 °F 87% 29.84 in 10.0 mi South 8.1 mph - N/A   Mostly Cloudy
12:45 PM 46.4 °F 42.9 °F 42.8 °F 87% 29.84 in 10.0 mi SSE 6.9 mph - N/A   Overcast
1:05 PM 46.4 °F 42.4 °F 42.8 °F 87% 29.83 in 10.0 mi SSE 8.1 mph - N/A   Overcast
1:30 PM 46.4 °F 42.9 °F 42.8 °F 87% 29.81 in 10.0 mi SE 6.9 mph - N/A   Overcast
1:50 PM 46.4 °F 42.9 °F 42.8 °F 87% 29.82 in 10.0 mi SSE 6.9 mph - N/A   Overcast
2:10 PM 46.4 °F 42.9 °F 42.8 °F 87% 29.81 in 10.0 mi SSE 6.9 mph - N/A   Overcast
2:30 PM 46.4 °F 43.5 °F 42.8 °F 87% 29.80 in 10.0 mi SE 5.8 mph - N/A   Overcast
2:55 PM 46.4 °F 43.5 °F 42.8 °F 87% 29.80 in 10.0 mi SE 5.8 mph - N/A   Overcast
3:15 PM 46.4 °F 43.5 °F 42.8 °F 87% 29.79 in 10.0 mi SE 5.8 mph - N/A   Overcast
3:35 PM 46.4 °F 43.5 °F 42.8 °F 87% 29.79 in 10.0 mi SE 5.8 mph - N/A   Overcast
3:55 PM 46.4 °F 43.5 °F 42.8 °F 87% 29.78 in 10.0 mi SSE 5.8 mph - N/A   Overcast
4:15 PM 44.6 °F 41.4 °F 44.6 °F 100% 29.78 in 10.0 mi SSE 5.8 mph - N/A   Overcast
4:40 PM 44.6 °F 41.4 °F 44.6 °F 100% 29.79 in 7.0 mi SSE 5.8 mph - N/A   Overcast
5:00 PM 44.6 °F 42.2 °F 44.6 °F 100% 29.79 in 7.0 mi SSE 4.6 mph - N/A   Overcast
5:20 PM 44.6 °F 41.4 °F 44.6 °F 100% 29.79 in 10.0 mi South 5.8 mph - N/A   Overcast
5:40 PM 44.6 °F 41.4 °F 44.6 °F 100% 29.79 in 10.0 mi SE 5.8 mph - N/A   Overcast
6:05 PM 44.6 °F 41.4 °F 44.6 °F 100% 29.79 in 7.0 mi SSE 5.8 mph - N/A   Overcast
6:25 PM 44.6 °F 40.7 °F 44.6 °F 100% 29.78 in 10.0 mi SSE 6.9 mph - N/A   Overcast
6:45 PM 44.6 °F 41.4 °F 44.6 °F 100% 29.79 in 7.0 mi South 5.8 mph - N/A   Overcast
7:05 PM 46.4 °F 42.9 °F 46.4 °F 100% 29.79 in 7.0 mi South 6.9 mph - N/A   Overcast
7:30 PM 46.4 °F 43.5 °F 46.4 °F 100% 29.78 in 10.0 mi South 5.8 mph - N/A   Mostly Cloudy
7:50 PM 46.4 °F 43.5 °F 46.4 °F 100% 29.78 in 7.0 mi South 5.8 mph - N/A   Mostly Cloudy
8:10 PM 44.6 °F 40.7 °F 44.6 °F 100% 29.78 in 7.0 mi SSE 6.9 mph - N/A   Mostly Cloudy
8:30 PM 44.6 °F 41.4 °F 44.6 °F 100% 29.78 in 7.0 mi SSE 5.8 mph - N/A   Overcast
8:55 PM 44.6 °F 40.7 °F 44.6 °F 100% 29.79 in 10.0 mi South 6.9 mph - N/A   Mostly Cloudy
9:15 PM 44.6 °F 40.7 °F 44.6 °F 100% 29.79 in 10.0 mi South 6.9 mph - N/A   Mostly Cloudy
9:30 PM 46.4 °F 42.9 °F 46.4 °F 100% 29.79 in 10.0 mi SSW 6.9 mph - N/A   Overcast
9:55 PM 46.4 °F 42.4 °F 46.4 °F 100% 29.78 in 10.0 mi SSW 8.1 mph - N/A   Overcast
10:20 PM 48.2 °F - 48.2 °F 100% 29.79 in 10.0 mi SW 9.2 mph 16.1 mph N/A   Overcast
10:40 PM 48.2 °F - 48.2 °F 100% 29.80 in 10.0 mi SW 5.8 mph - N/A   Mostly Cloudy
11:00 PM 50.0 °F - 50.0 °F 100% 29.80 in 10.0 mi SW 11.5 mph 16.1 mph N/A   Mostly Cloudy
11:25 PM 50.0 °F - 50.0 °F 100% 29.80 in 10.0 mi SW 6.9 mph - N/A   Overcast
11:45 PM 50.0 °F - 50.0 °F 100% 29.78 in 10.0 mi SW 6.9 mph - N/A   Mostly Cloudy